sensor_id;sensor_type;location;lat;lon;timestamp;pressure;altitude;pressure_sealevel;temperature;humidity
61345;BME280;47216;42.656;23.232;2024-01-15T00:02:17;93288.16;;;-0.09;61.35
61345;BME280;47216;42.656;23.232;2024-01-15T00:04:48;93276.72;;;-0.13;61.53
61345;BME280;47216;42.656;23.232;2024-01-15T00:07:16;93278.28;;;-0.25;61.57
61345;BME280;47216;42.656;23.232;2024-01-15T00:09:44;93276.28;;;-0.36;61.77
61345;BME280;47216;42.656;23.232;2024-01-15T00:12:13;93270.72;;;-0.60;62.32
61345;BME280;47216;42.656;23.232;2024-01-15T00:14:44;93266.78;;;-0.56;62.50
61345;BME280;47216;42.656;23.232;2024-01-15T00:17:14;93261.66;;;-0.56;62.75
61345;BME280;47216;42.656;23.232;2024-01-15T00:19:45;93270.53;;;-0.52;62.47
61345;BME280;47216;42.656;23.232;2024-01-15T00:22:14;93269.91;;;-0.67;62.67
61345;BME280;47216;42.656;23.232;2024-01-15T00:24:48;93267.53;;;-0.69;62.74
61345;BME280;47216;42.656;23.232;2024-01-15T00:27:16;93277.38;;;-0.72;62.99
61345;BME280;47216;42.656;23.232;2024-01-15T00:29:48;93277.22;;;-0.64;63.32
61345;BME280;47216;42.656;23.232;2024-01-15T00:32:16;93282.13;;;-0.69;62.77
61345;BME280;47216;42.656;23.232;2024-01-15T00:34:48;93279.16;;;-0.73;62.98
61345;BME280;47216;42.656;23.232;2024-01-15T00:37:17;93276.22;;;-0.63;63.13
61345;BME280;47216;42.656;23.232;2024-01-15T00:39:46;93276.97;;;-0.76;63.50
61345;BME280;47216;42.656;23.232;2024-01-15T00:42:16;93281.09;;;-0.75;63.40
61345;BME280;47216;42.656;23.232;2024-01-15T00:44:47;93280.91;;;-0.73;63.17
61345;BME280;47216;42.656;23.232;2024-01-15T00:47:18;93287.81;;;-0.74;63.27
61345;BME280;47216;42.656;23.232;2024-01-15T00:49:48;93278.16;;;-0.72;63.39
61345;BME280;47216;42.656;23.232;2024-01-15T00:52:18;93275.97;;;-0.81;63.07
61345;BME280;47216;42.656;23.232;2024-01-15T00:54:47;93282.84;;;-0.82;63.43
61345;BME280;47216;42.656;23.232;2024-01-15T00:57:16;93269.91;;;-0.74;63.43
61345;BME280;47216;42.656;23.232;2024-01-15T00:59:49;93276.91;;;-0.96;62.99
61345;BME280;47216;42.656;23.232;2024-01-15T01:02:17;93269.06;;;-0.88;63.54
61345;BME280;47216;42.656;23.232;2024-01-15T01:04:46;93271.19;;;-0.98;63.29
61345;BME280;47216;42.656;23.232;2024-01-15T01:07:15;93262.31;;;-0.95;63.18
61345;BME280;47216;42.656;23.232;2024-01-15T01:09:46;93276.88;;;-1.02;63.79
61345;BME280;47216;42.656;23.232;2024-01-15T01:12:14;93267.44;;;-0.95;64.21
61345;BME280;47216;42.656;23.232;2024-01-15T01:14:50;93272.97;;;-0.92;63.85
61345;BME280;47216;42.656;23.232;2024-01-15T01:17:20;93269.59;;;-0.99;63.94
61345;BME280;47216;42.656;23.232;2024-01-15T01:19:49;93266.03;;;-1.04;63.83
61345;BME280;47216;42.656;23.232;2024-01-15T01:22:19;93268.56;;;-1.11;64.44
61345;BME280;47216;42.656;23.232;2024-01-15T01:24:49;93259.97;;;-0.97;63.59
61345;BME280;47216;42.656;23.232;2024-01-15T01:27:18;93259.13;;;-1.04;63.19
61345;BME280;47216;42.656;23.232;2024-01-15T01:29:50;93252.63;;;-1.13;64.19
61345;BME280;47216;42.656;23.232;2024-01-15T01:32:21;93240.13;;;-1.30;64.42
61345;BME280;47216;42.656;23.232;2024-01-15T01:34:50;93250.41;;;-1.23;64.23
61345;BME280;47216;42.656;23.232;2024-01-15T01:37:19;93251.63;;;-1.12;64.09
61345;BME280;47216;42.656;23.232;2024-01-15T01:39:47;93243.22;;;-1.06;64.28
61345;BME280;47216;42.656;23.232;2024-01-15T01:42:16;93242.44;;;-1.00;64.20
61345;BME280;47216;42.656;23.232;2024-01-15T01:44:49;93236.94;;;-1.03;63.44
61345;BME280;47216;42.656;23.232;2024-01-15T01:47:20;93246.19;;;-0.96;63.24
61345;BME280;47216;42.656;23.232;2024-01-15T01:49:50;93229.84;;;-0.95;63.79
61345;BME280;47216;42.656;23.232;2024-01-15T01:52:17;93235.16;;;-1.03;63.41
61345;BME280;47216;42.656;23.232;2024-01-15T01:54:50;93230.81;;;-1.02;63.31
61345;BME280;47216;42.656;23.232;2024-01-15T01:57:20;93234.38;;;-1.03;63.41
61345;BME280;47216;42.656;23.232;2024-01-15T01:59:51;93231.00;;;-1.04;63.67
61345;BME280;47216;42.656;23.232;2024-01-15T02:02:22;93231.22;;;-1.06;63.76
61345;BME280;47216;42.656;23.232;2024-01-15T02:04:51;93224.09;;;-1.10;63.02
61345;BME280;47216;42.656;23.232;2024-01-15T02:07:22;93223.53;;;-1.06;63.09
61345;BME280;47216;42.656;23.232;2024-01-15T02:09:50;93222.50;;;-1.18;63.28
61345;BME280;47216;42.656;23.232;2024-01-15T02:12:20;93219.13;;;-1.18;64.13
61345;BME280;47216;42.656;23.232;2024-01-15T02:14:50;93209.53;;;-1.10;63.95
61345;BME280;47216;42.656;23.232;2024-01-15T02:17:22;93212.31;;;-1.04;63.95
61345;BME280;47216;42.656;23.232;2024-01-15T02:19:51;93202.84;;;-1.11;64.02
61345;BME280;47216;42.656;23.232;2024-01-15T02:22:19;93170.34;;;-1.23;63.59
61345;BME280;47216;42.656;23.232;2024-01-15T02:24:49;93157.16;;;-1.27;64.54
61345;BME280;47216;42.656;23.232;2024-01-15T02:27:20;93167.81;;;-1.17;63.65
61345;BME280;47216;42.656;23.232;2024-01-15T02:29:50;93164.66;;;-1.19;64.64
61345;BME280;47216;42.656;23.232;2024-01-15T02:32:19;93159.47;;;-1.32;64.92
61345;BME280;47216;42.656;23.232;2024-01-15T02:34:50;93174.81;;;-1.32;64.47
61345;BME280;47216;42.656;23.232;2024-01-15T02:37:18;93168.16;;;-1.33;65.01
61345;BME280;47216;42.656;23.232;2024-01-15T02:39:49;93169.31;;;-1.36;64.61
61345;BME280;47216;42.656;23.232;2024-01-15T02:42:20;93159.91;;;-1.29;64.82
61345;BME280;47216;42.656;23.232;2024-01-15T02:44:51;93167.38;;;-1.34;64.21
61345;BME280;47216;42.656;23.232;2024-01-15T02:47:19;93163.41;;;-1.30;64.11
61345;BME280;47216;42.656;23.232;2024-01-15T02:49:48;93172.84;;;-1.37;64.98
61345;BME280;47216;42.656;23.232;2024-01-15T02:52:19;93177.63;;;-1.27;64.46
61345;BME280;47216;42.656;23.232;2024-01-15T02:54:53;93163.25;;;-1.21;64.65
61345;BME280;47216;42.656;23.232;2024-01-15T02:57:23;93171.25;;;-1.44;64.53
61345;BME280;47216;42.656;23.232;2024-01-15T02:59:51;93166.53;;;-1.48;65.66
61345;BME280;47216;42.656;23.232;2024-01-15T03:02:21;93161.44;;;-1.41;65.43
61345;BME280;47216;42.656;23.232;2024-01-15T03:04:51;93156.91;;;-1.39;65.19
61345;BME280;47216;42.656;23.232;2024-01-15T03:07:21;93154.34;;;-1.39;65.89
61345;BME280;47216;42.656;23.232;2024-01-15T03:09:53;93160.28;;;-1.32;65.62
61345;BME280;47216;42.656;23.232;2024-01-15T03:12:21;93145.53;;;-1.30;65.84
61345;BME280;47216;42.656;23.232;2024-01-15T03:14:51;93159.78;;;-1.55;65.94
61345;BME280;47216;42.656;23.232;2024-01-15T03:17:21;93143.34;;;-1.33;65.71
61345;BME280;47216;42.656;23.232;2024-01-15T03:19:53;93144.34;;;-1.34;65.55
61345;BME280;47216;42.656;23.232;2024-01-15T03:22:21;93143.69;;;-1.49;66.70
61345;BME280;47216;42.656;23.232;2024-01-15T03:24:55;93135.88;;;-1.28;66.37
61345;BME280;47216;42.656;23.232;2024-01-15T03:27:25;93129.25;;;-1.15;65.82
61345;BME280;47216;42.656;23.232;2024-01-15T03:29:53;93130.19;;;-1.23;66.21
61345;BME280;47216;42.656;23.232;2024-01-15T03:32:21;93141.44;;;-1.17;65.59
61345;BME280;47216;42.656;23.232;2024-01-15T03:34:52;93140.63;;;-1.24;66.43
61345;BME280;47216;42.656;23.232;2024-01-15T03:37:22;93141.03;;;-1.21;65.89
61345;BME280;47216;42.656;23.232;2024-01-15T03:39:55;93152.47;;;-1.17;66.21
61345;BME280;47216;42.656;23.232;2024-01-15T03:42:23;93142.22;;;-1.23;66.28
61345;BME280;47216;42.656;23.232;2024-01-15T03:44:52;93146.50;;;-1.31;66.76
61345;BME280;47216;42.656;23.232;2024-01-15T03:47:22;93137.47;;;-1.27;66.34
61345;BME280;47216;42.656;23.232;2024-01-15T03:49:52;93135.94;;;-1.14;66.52
61345;BME280;47216;42.656;23.232;2024-01-15T03:52:23;93126.50;;;-1.07;65.71
61345;BME280;47216;42.656;23.232;2024-01-15T03:54:51;93123.34;;;-1.09;65.64
61345;BME280;47216;42.656;23.232;2024-01-15T03:57:24;93138.31;;;-1.06;65.93
61345;BME280;47216;42.656;23.232;2024-01-15T03:59:52;93129.84;;;-1.00;65.64
61345;BME280;47216;42.656;23.232;2024-01-15T04:02:19;93126.53;;;-0.94;65.28
61345;BME280;47216;42.656;23.232;2024-01-15T04:04:52;93122.41;;;-1.01;65.55
61345;BME280;47216;42.656;23.232;2024-01-15T04:07:24;93119.44;;;-1.05;64.99
61345;BME280;47216;42.656;23.232;2024-01-15T04:09:52;93109.97;;;-1.11;65.76
61345;BME280;47216;42.656;23.232;2024-01-15T04:12:22;93123.34;;;-1.22;65.00
61345;BME280;47216;42.656;23.232;2024-01-15T04:14:53;93110.72;;;-1.31;65.33
61345;BME280;47216;42.656;23.232;2024-01-15T04:17:22;93112.84;;;-1.48;66.33
61345;BME280;47216;42.656;23.232;2024-01-15T04:19:53;93122.06;;;-1.46;66.22
61345;BME280;47216;42.656;23.232;2024-01-15T04:22:23;93118.19;;;-1.36;66.55
61345;BME280;47216;42.656;23.232;2024-01-15T04:24:52;93120.69;;;-1.49;65.95
61345;BME280;47216;42.656;23.232;2024-01-15T04:27:23;93112.63;;;-1.46;66.48
61345;BME280;47216;42.656;23.232;2024-01-15T04:29:53;93120.53;;;-1.41;66.21
61345;BME280;47216;42.656;23.232;2024-01-15T04:32:23;93129.91;;;-1.48;65.63
61345;BME280;47216;42.656;23.232;2024-01-15T04:34:52;93124.78;;;-1.61;66.05
61345;BME280;47216;42.656;23.232;2024-01-15T04:37:24;93120.00;;;-1.71;66.86
61345;BME280;47216;42.656;23.232;2024-01-15T04:39:54;93119.66;;;-1.61;66.96
61345;BME280;47216;42.656;23.232;2024-01-15T04:42:27;93119.44;;;-1.66;66.57
61345;BME280;47216;42.656;23.232;2024-01-15T04:44:57;93107.03;;;-1.70;66.27
61345;BME280;47216;42.656;23.232;2024-01-15T04:47:27;93117.84;;;-1.74;66.79
61345;BME280;47216;42.656;23.232;2024-01-15T04:49:58;93111.72;;;-1.80;67.15
61345;BME280;47216;42.656;23.232;2024-01-15T04:52:28;93099.16;;;-1.75;67.12
61345;BME280;47216;42.656;23.232;2024-01-15T04:54:57;93099.81;;;-1.59;67.23
61345;BME280;47216;42.656;23.232;2024-01-15T04:57:27;93096.81;;;-1.70;66.49
61345;BME280;47216;42.656;23.232;2024-01-15T05:00:00;93087.94;;;-1.74;66.66
61345;BME280;47216;42.656;23.232;2024-01-15T05:02:30;93085.97;;;-1.78;66.86
61345;BME280;47216;42.656;23.232;2024-01-15T05:04:59;93072.41;;;-1.79;67.42
61345;BME280;47216;42.656;23.232;2024-01-15T05:07:27;93070.47;;;-1.77;67.17
61345;BME280;47216;42.656;23.232;2024-01-15T05:09:58;93071.44;;;-1.78;66.77
61345;BME280;47216;42.656;23.232;2024-01-15T05:12:27;93072.03;;;-1.76;66.77
61345;BME280;47216;42.656;23.232;2024-01-15T05:14:56;93074.25;;;-1.59;67.00
61345;BME280;47216;42.656;23.232;2024-01-15T05:17:26;93084.69;;;-1.54;66.40
61345;BME280;47216;42.656;23.232;2024-01-15T05:19:54;93086.69;;;-1.50;66.42
61345;BME280;47216;42.656;23.232;2024-01-15T05:22:24;93078.25;;;-1.37;66.85
61345;BME280;47216;42.656;23.232;2024-01-15T05:24:53;93085.09;;;-1.44;66.28
61345;BME280;47216;42.656;23.232;2024-01-15T05:27:24;93081.34;;;-1.48;66.77
61345;BME280;47216;42.656;23.232;2024-01-15T05:29:54;93076.06;;;-1.40;67.08
61345;BME280;47216;42.656;23.232;2024-01-15T05:32:24;93082.78;;;-1.25;67.26
61345;BME280;47216;42.656;23.232;2024-01-15T05:34:53;93074.53;;;-1.28;67.31
61345;BME280;47216;42.656;23.232;2024-01-15T05:37:21;93076.06;;;-1.40;66.29
61345;BME280;47216;42.656;23.232;2024-01-15T05:39:51;93066.25;;;-1.43;66.83
61345;BME280;47216;42.656;23.232;2024-01-15T05:42:21;93067.41;;;-1.39;66.92
61345;BME280;47216;42.656;23.232;2024-01-15T05:44:55;93060.78;;;-1.20;66.01
61345;BME280;47216;42.656;23.232;2024-01-15T05:47:26;93060.78;;;-1.27;66.32
61345;BME280;47216;42.656;23.232;2024-01-15T05:49:55;93061.56;;;-1.26;65.96
61345;BME280;47216;42.656;23.232;2024-01-15T05:52:25;93057.03;;;-1.31;66.08
61345;BME280;47216;42.656;23.232;2024-01-15T05:54:55;93068.59;;;-1.35;66.05
61345;BME280;47216;42.656;23.232;2024-01-15T05:57:23;93067.41;;;-1.39;66.10
61345;BME280;47216;42.656;23.232;2024-01-15T05:59:55;93060.16;;;-1.29;66.25
61345;BME280;47216;42.656;23.232;2024-01-15T06:02:25;93055.22;;;-1.37;65.41
61345;BME280;47216;42.656;23.232;2024-01-15T06:04:55;93056.19;;;-1.44;66.04
61345;BME280;47216;42.656;23.232;2024-01-15T06:07:26;93049.88;;;-1.55;65.93
61345;BME280;47216;42.656;23.232;2024-01-15T06:09:54;93056.53;;;-1.67;66.80
61345;BME280;47216;42.656;23.232;2024-01-15T06:12:25;93062.88;;;-1.57;66.71
61345;BME280;47216;42.656;23.232;2024-01-15T06:14:56;93058.94;;;-1.46;66.56
61345;BME280;47216;42.656;23.232;2024-01-15T06:17:26;93072.31;;;-1.51;66.62
61345;BME280;47216;42.656;23.232;2024-01-15T06:19:56;93065.25;;;-1.42;67.02
61345;BME280;47216;42.656;23.232;2024-01-15T06:22:27;93057.78;;;-1.50;66.31
61345;BME280;47216;42.656;23.232;2024-01-15T06:24:57;93046.56;;;-1.42;66.57
61345;BME280;47216;42.656;23.232;2024-01-15T06:27:27;93056.78;;;-1.49;67.17
61345;BME280;47216;42.656;23.232;2024-01-15T06:29:58;93063.41;;;-1.68;67.16
61345;BME280;47216;42.656;23.232;2024-01-15T06:32:26;93054.03;;;-1.48;67.04
61345;BME280;47216;42.656;23.232;2024-01-15T06:34:53;93050.31;;;-1.45;67.52
61345;BME280;47216;42.656;23.232;2024-01-15T06:37:20;93051.69;;;-1.36;67.00
61345;BME280;47216;42.656;23.232;2024-01-15T06:39:47;93063.88;;;-1.38;67.64
61345;BME280;47216;42.656;23.232;2024-01-15T06:42:14;93067.06;;;-1.29;67.53
61345;BME280;47216;42.656;23.232;2024-01-15T06:44:42;93060.78;;;-1.07;66.86
61345;BME280;47216;42.656;23.232;2024-01-15T06:47:10;93065.72;;;-0.98;67.08
61345;BME280;47216;42.656;23.232;2024-01-15T06:49:41;93064.13;;;-0.93;66.55
61345;BME280;47216;42.656;23.232;2024-01-15T06:52:10;93060.97;;;-0.81;66.56
61345;BME280;47216;42.656;23.232;2024-01-15T06:54:40;93063.56;;;-1.01;66.30
61345;BME280;47216;42.656;23.232;2024-01-15T06:57:10;93068.66;;;-0.95;67.00
61345;BME280;47216;42.656;23.232;2024-01-15T06:59:39;93058.84;;;-0.71;66.43
61345;BME280;47216;42.656;23.232;2024-01-15T07:02:13;93075.56;;;-0.69;66.26
61345;BME280;47216;42.656;23.232;2024-01-15T07:04:42;93077.91;;;-0.67;65.60
61345;BME280;47216;42.656;23.232;2024-01-15T07:07:13;93090.53;;;-0.66;65.77
61345;BME280;47216;42.656;23.232;2024-01-15T07:09:42;93087.56;;;-0.63;66.07
61345;BME280;47216;42.656;23.232;2024-01-15T07:12:11;93081.06;;;-0.45;65.83
61345;BME280;47216;42.656;23.232;2024-01-15T07:14:41;93084.41;;;-0.45;65.65
61345;BME280;47216;42.656;23.232;2024-01-15T07:17:16;93082.44;;;-0.36;65.85
61345;BME280;47216;42.656;23.232;2024-01-15T07:19:45;93068.63;;;-0.28;65.19
61345;BME280;47216;42.656;23.232;2024-01-15T07:22:14;93065.06;;;-0.20;65.49
61345;BME280;47216;42.656;23.232;2024-01-15T07:24:44;93074.91;;;-0.24;65.46
61345;BME280;47216;42.656;23.232;2024-01-15T07:27:12;93073.16;;;-0.30;65.50
61345;BME280;47216;42.656;23.232;2024-01-15T07:29:40;93062.69;;;-0.22;65.57
61345;BME280;47216;42.656;23.232;2024-01-15T07:32:08;93061.50;;;-0.19;65.48
61345;BME280;47216;42.656;23.232;2024-01-15T07:34:37;93066.69;;;-0.46;65.83
61345;BME280;47216;42.656;23.232;2024-01-15T07:37:05;93050.50;;;-0.33;66.14
61345;BME280;47216;42.656;23.232;2024-01-15T07:39:32;93058.34;;;-0.15;66.00
61345;BME280;47216;42.656;23.232;2024-01-15T07:42:00;93062.69;;;-0.09;66.62
61345;BME280;47216;42.656;23.232;2024-01-15T07:44:29;93065.97;;;0.12;65.69
61345;BME280;47216;42.656;23.232;2024-01-15T07:46:59;93076.75;;;0.27;65.18
61345;BME280;47216;42.656;23.232;2024-01-15T07:49:26;93071.97;;;0.37;65.33
61345;BME280;47216;42.656;23.232;2024-01-15T07:51:58;93073.69;;;0.50;65.40
61345;BME280;47216;42.656;23.232;2024-01-15T07:54:30;93060.22;;;0.61;64.72
61345;BME280;47216;42.656;23.232;2024-01-15T07:56:59;93046.16;;;0.71;64.18
61345;BME280;47216;42.656;23.232;2024-01-15T07:59:28;93051.75;;;0.61;64.33
61345;BME280;47216;42.656;23.232;2024-01-15T08:01:58;93046.69;;;0.48;64.35
61345;BME280;47216;42.656;23.232;2024-01-15T08:04:30;93033.31;;;0.32;63.77
61345;BME280;47216;42.656;23.232;2024-01-15T08:07:02;93042.94;;;0.44;64.18
61345;BME280;47216;42.656;23.232;2024-01-15T08:09:33;93049.72;;;0.70;63.81
61345;BME280;47216;42.656;23.232;2024-01-15T08:12:08;93048.06;;;0.82;63.83
61345;BME280;47216;42.656;23.232;2024-01-15T08:14:38;93058.28;;;0.89;63.68
61345;BME280;47216;42.656;23.232;2024-01-15T08:17:09;93071.88;;;0.96;62.88
61345;BME280;47216;42.656;23.232;2024-01-15T08:19:40;93069.63;;;1.06;63.02
61345;BME280;47216;42.656;23.232;2024-01-15T08:22:12;93067.63;;;1.08;62.52
61345;BME280;47216;42.656;23.232;2024-01-15T08:24:40;93068.78;;;1.12;62.19
61345;BME280;47216;42.656;23.232;2024-01-15T08:27:13;93065.16;;;1.20;62.28
61345;BME280;47216;42.656;23.232;2024-01-15T08:29:45;93057.75;;;1.37;61.95
61345;BME280;47216;42.656;23.232;2024-01-15T08:32:13;93061.44;;;1.41;62.15
61345;BME280;47216;42.656;23.232;2024-01-15T08:34:41;93051.06;;;1.54;61.16
61345;BME280;47216;42.656;23.232;2024-01-15T08:37:08;93060.75;;;1.52;60.60
61345;BME280;47216;42.656;23.232;2024-01-15T08:39:37;93056.31;;;1.41;60.66
61345;BME280;47216;42.656;23.232;2024-01-15T08:42:05;93051.66;;;1.56;60.79
61345;BME280;47216;42.656;23.232;2024-01-15T08:44:33;93047.81;;;1.65;59.99
61345;BME280;47216;42.656;23.232;2024-01-15T08:47:00;93053.66;;;1.73;60.08
61345;BME280;47216;42.656;23.232;2024-01-15T08:49:28;93044.97;;;1.74;60.27
61345;BME280;47216;42.656;23.232;2024-01-15T08:51:55;93029.25;;;1.82;60.17
61345;BME280;47216;42.656;23.232;2024-01-15T08:54:23;93041.84;;;1.90;59.72
61345;BME280;47216;42.656;23.232;2024-01-15T08:56:51;93025.00;;;1.94;59.75
61345;BME280;47216;42.656;23.232;2024-01-15T08:59:19;93018.13;;;2.06;59.75
61345;BME280;47216;42.656;23.232;2024-01-15T09:01:50;93020.69;;;1.88;59.16
61345;BME280;47216;42.656;23.232;2024-01-15T09:04:18;93022.25;;;1.89;59.42
61345;BME280;47216;42.656;23.232;2024-01-15T09:06:48;93001.00;;;1.82;60.40
61345;BME280;47216;42.656;23.232;2024-01-15T09:09:16;93000.84;;;1.77;60.36
61345;BME280;47216;42.656;23.232;2024-01-15T09:11:43;92984.72;;;1.88;60.02
61345;BME280;47216;42.656;23.232;2024-01-15T09:14:12;92984.56;;;2.01;60.19
61345;BME280;47216;42.656;23.232;2024-01-15T09:16:40;92983.00;;;1.82;59.33
61345;BME280;47216;42.656;23.232;2024-01-15T09:19:07;92983.38;;;1.67;59.96
61345;BME280;47216;42.656;23.232;2024-01-15T09:21:34;92969.25;;;1.76;59.64
61345;BME280;47216;42.656;23.232;2024-01-15T09:24:01;92966.59;;;1.83;60.03
61345;BME280;47216;42.656;23.232;2024-01-15T09:26:28;92962.56;;;1.87;59.86
61345;BME280;47216;42.656;23.232;2024-01-15T09:28:55;92968.44;;;1.94;60.05
61345;BME280;47216;42.656;23.232;2024-01-15T09:31:24;92950.50;;;2.06;60.33
61345;BME280;47216;42.656;23.232;2024-01-15T09:33:52;92946.34;;;2.05;59.52
61345;BME280;47216;42.656;23.232;2024-01-15T09:36:22;92939.34;;;2.12;59.63
61345;BME280;47216;42.656;23.232;2024-01-15T09:38:50;92933.53;;;2.17;59.89
61345;BME280;47216;42.656;23.232;2024-01-15T09:41:17;92934.31;;;2.17;60.09
61345;BME280;47216;42.656;23.232;2024-01-15T09:43:45;92914.66;;;2.23;60.06
61345;BME280;47216;42.656;23.232;2024-01-15T09:46:13;92910.50;;;2.22;59.83
61345;BME280;47216;42.656;23.232;2024-01-15T09:48:43;92906.09;;;2.29;60.12
61345;BME280;47216;42.656;23.232;2024-01-15T09:51:11;92883.06;;;2.34;59.42
61345;BME280;47216;42.656;23.232;2024-01-15T09:53:39;92887.00;;;2.48;59.52
61345;BME280;47216;42.656;23.232;2024-01-15T09:56:08;92888.69;;;2.55;58.51
61345;BME280;47216;42.656;23.232;2024-01-15T09:58:39;92875.28;;;2.64;57.99
61345;BME280;47216;42.656;23.232;2024-01-15T10:01:08;92888.59;;;2.73;58.09
61345;BME280;47216;42.656;23.232;2024-01-15T10:03:37;92905.72;;;2.79;58.34
61345;BME280;47216;42.656;23.232;2024-01-15T10:06:07;92890.41;;;2.84;58.64
61345;BME280;47216;42.656;23.232;2024-01-15T10:08:36;92889.50;;;2.90;58.01
61345;BME280;47216;42.656;23.232;2024-01-15T10:11:05;92886.16;;;3.02;57.57
61345;BME280;47216;42.656;23.232;2024-01-15T10:13:33;92882.13;;;3.06;56.15
61345;BME280;47216;42.656;23.232;2024-01-15T10:16:01;92875.03;;;3.25;56.86
61345;BME280;47216;42.656;23.232;2024-01-15T10:18:30;92868.53;;;3.34;54.95
61345;BME280;47216;42.656;23.232;2024-01-15T10:20:58;92861.47;;;3.41;54.80
61345;BME280;47216;42.656;23.232;2024-01-15T10:23:27;92853.59;;;3.48;54.42
61345;BME280;47216;42.656;23.232;2024-01-15T10:25:56;92854.16;;;3.50;55.14
61345;BME280;47216;42.656;23.232;2024-01-15T10:28:26;92841.75;;;3.47;55.17
61345;BME280;47216;42.656;23.232;2024-01-15T10:30:57;92852.50;;;3.44;54.93
61345;BME280;47216;42.656;23.232;2024-01-15T10:33:25;92850.00;;;3.49;55.48
61345;BME280;47216;42.656;23.232;2024-01-15T10:35:54;92853.47;;;3.54;55.14
61345;BME280;47216;42.656;23.232;2024-01-15T10:38:23;92853.34;;;3.61;55.36
61345;BME280;47216;42.656;23.232;2024-01-15T10:40:54;92854.13;;;3.62;54.46
61345;BME280;47216;42.656;23.232;2024-01-15T10:43:22;92844.28;;;3.58;54.37
61345;BME280;47216;42.656;23.232;2024-01-15T10:45:51;92834.38;;;3.67;53.95
61345;BME280;47216;42.656;23.232;2024-01-15T10:48:19;92824.31;;;3.66;53.97
61345;BME280;47216;42.656;23.232;2024-01-15T10:50:47;92834.28;;;3.62;53.74
61345;BME280;47216;42.656;23.232;2024-01-15T10:53:16;92828.78;;;3.70;54.42
61345;BME280;47216;42.656;23.232;2024-01-15T10:55:46;92824.19;;;3.72;54.51
61345;BME280;47216;42.656;23.232;2024-01-15T10:58:17;92825.47;;;3.87;54.32
61345;BME280;47216;42.656;23.232;2024-01-15T11:00:45;92804.91;;;3.92;54.01
61345;BME280;47216;42.656;23.232;2024-01-15T11:03:14;92803.91;;;3.93;53.53
61345;BME280;47216;42.656;23.232;2024-01-15T11:05:43;92789.78;;;3.95;53.91
61345;BME280;47216;42.656;23.232;2024-01-15T11:08:09;92797.81;;;3.99;55.32
61345;BME280;47216;42.656;23.232;2024-01-15T11:10:39;92789.22;;;4.10;54.07
61345;BME280;47216;42.656;23.232;2024-01-15T11:13:09;92797.81;;;3.99;54.10
61345;BME280;47216;42.656;23.232;2024-01-15T11:15:57;92795.31;;;4.04;53.50
61345;BME280;47216;42.656;23.232;2024-01-15T11:18:27;92795.72;;;4.13;55.37
61345;BME280;47216;42.656;23.232;2024-01-15T11:21:20;92797.84;;;4.33;55.84
61345;BME280;47216;42.656;23.232;2024-01-15T11:23:48;92791.09;;;4.32;54.79
61345;BME280;47216;42.656;23.232;2024-01-15T11:26:37;92795.81;;;4.35;55.47
61345;BME280;47216;42.656;23.232;2024-01-15T11:29:06;92797.06;;;4.49;53.68
61345;BME280;47216;42.656;23.232;2024-01-15T11:32:00;92783.13;;;4.50;53.04
61345;BME280;47216;42.656;23.232;2024-01-15T11:34:58;92778.56;;;4.57;53.79
61345;BME280;47216;42.656;23.232;2024-01-15T11:37:28;92787.84;;;4.53;53.67
61345;BME280;47216;42.656;23.232;2024-01-15T11:39:59;92785.16;;;4.65;52.94
61345;BME280;47216;42.656;23.232;2024-01-15T11:42:29;92783.13;;;4.67;53.72
61345;BME280;47216;42.656;23.232;2024-01-15T11:44:57;92784.44;;;4.70;54.10
61345;BME280;47216;42.656;23.232;2024-01-15T11:50:24;92774.97;;;4.75;53.44
61345;BME280;47216;42.656;23.232;2024-01-15T11:52:59;92770.41;;;4.82;53.22
61345;BME280;47216;42.656;23.232;2024-01-15T11:55:27;92761.47;;;4.90;52.98
61345;BME280;47216;42.656;23.232;2024-01-15T11:57:55;92758.97;;;4.95;52.69
61345;BME280;47216;42.656;23.232;2024-01-15T12:00:24;92762.25;;;4.91;52.87
61345;BME280;47216;42.656;23.232;2024-01-15T12:02:52;92756.44;;;5.00;52.83
61345;BME280;47216;42.656;23.232;2024-01-15T12:05:20;92735.75;;;5.00;52.82
61345;BME280;47216;42.656;23.232;2024-01-15T12:07:48;92740.44;;;5.03;52.69
61345;BME280;47216;42.656;23.232;2024-01-15T12:10:16;92748.50;;;5.07;52.85
61345;BME280;47216;42.656;23.232;2024-01-15T12:12:56;92735.28;;;5.03;52.49
61345;BME280;47216;42.656;23.232;2024-01-15T12:15:24;92747.72;;;5.07;52.28
61345;BME280;47216;42.656;23.232;2024-01-15T12:17:54;92741.34;;;5.14;52.80
61345;BME280;47216;42.656;23.232;2024-01-15T12:20:21;92734.69;;;5.18;53.08
61345;BME280;47216;42.656;23.232;2024-01-15T12:22:49;92729.16;;;5.10;53.35
61345;BME280;47216;42.656;23.232;2024-01-15T12:25:16;92722.97;;;5.11;53.19
61345;BME280;47216;42.656;23.232;2024-01-15T12:27:43;92732.28;;;5.12;52.73
61345;BME280;47216;42.656;23.232;2024-01-15T12:30:11;92721.63;;;5.08;52.89
61345;BME280;47216;42.656;23.232;2024-01-15T12:32:39;92728.94;;;5.11;53.63
61345;BME280;47216;42.656;23.232;2024-01-15T12:35:08;92720.91;;;5.13;54.91
61345;BME280;47216;42.656;23.232;2024-01-15T12:37:36;92719.91;;;5.14;54.46
61345;BME280;47216;42.656;23.232;2024-01-15T12:40:04;92718.16;;;5.19;54.49
61345;BME280;47216;42.656;23.232;2024-01-15T12:42:33;92713.28;;;5.23;54.87
61345;BME280;47216;42.656;23.232;2024-01-15T12:45:01;92712.22;;;5.19;54.38
61345;BME280;47216;42.656;23.232;2024-01-15T12:47:29;92706.53;;;5.22;53.78
61345;BME280;47216;42.656;23.232;2024-01-15T12:49:57;92711.72;;;5.22;53.88
61345;BME280;47216;42.656;23.232;2024-01-15T12:52:28;92713.72;;;5.15;53.38
61345;BME280;47216;42.656;23.232;2024-01-15T12:54:55;92693.56;;;5.17;53.41
61345;BME280;47216;42.656;23.232;2024-01-15T12:57:22;92697.66;;;5.13;53.44
61345;BME280;47216;42.656;23.232;2024-01-15T12:59:49;92696.44;;;5.15;53.36
61345;BME280;47216;42.656;23.232;2024-01-15T13:02:17;92697.47;;;4.92;53.61
61345;BME280;47216;42.656;23.232;2024-01-15T13:04:44;92692.63;;;5.01;54.08
61345;BME280;47216;42.656;23.232;2024-01-15T13:07:11;92700.75;;;4.88;54.79
61345;BME280;47216;42.656;23.232;2024-01-15T13:09:40;92703.56;;;4.86;55.42
61345;BME280;47216;42.656;23.232;2024-01-15T13:12:07;92691.03;;;4.95;55.57